Time;durP1;ratioP1;P1;durP2;ratioP2;P2;SDS_P1;SDS_P2;PMS_P1;PMS_P2;Temp;Humidity;BMP_temperature;BMP_pressure;BME280_temperature;BME280_humidity;BME280_pressure;Samples;Min_cycle;Max_cycle;Signal;HPM_P1;HPM_P2
2023/04/22 00:00:47;;;;;;;15.87;14.27;;;;;;;5.95;100.00;100632.44;5026335;29;20065;-72
2023/04/22 00:03:20;;;;;;;18.83;15.40;;;;;;;5.80;100.00;100625.50;5042616;29;20046;-72
2023/04/22 00:05:52;;;;;;;18.90;15.20;;;;;;;5.78;100.00;100624.59;5042685;29;20026;-72
2023/04/22 00:08:24;;;;;;;15.80;14.13;;;;;;;5.77;100.00;100625.47;5042576;29;20049;-73
2023/04/22 00:10:55;;;;;;;18.45;14.82;;;;;;;5.71;100.00;100628.03;5042258;29;20423;-73
2023/04/22 00:13:27;;;;;;;16.33;14.63;;;;;;;5.61;100.00;100619.38;5042319;29;20034;-73
2023/04/22 00:15:58;;;;;;;16.10;14.40;;;;;;;5.56;100.00;100623.66;5042397;29;20068;-72
2023/04/22 00:18:29;;;;;;;15.07;13.57;;;;;;;5.59;100.00;100626.25;5042676;29;20065;-72
2023/04/22 00:21:02;;;;;;;15.30;13.70;;;;;;;5.56;100.00;100623.66;5042477;29;20109;-72
2023/04/22 00:23:33;;;;;;;18.20;15.63;;;;;;;5.46;100.00;100628.75;5042201;29;20038;-72
2023/04/22 00:26:04;;;;;;;16.70;14.90;;;;;;;5.51;100.00;100628.81;5041931;29;20479;-72
2023/04/22 00:28:36;;;;;;;18.27;16.47;;;;;;;5.45;100.00;100621.00;5041967;29;20490;-72
2023/04/22 00:31:07;;;;;;;17.40;15.13;;;;;;;5.51;100.00;100622.78;5042452;29;20474;-72
2023/04/22 00:33:39;;;;;;;19.63;17.63;;;;;;;5.48;100.00;100616.69;5042080;29;20075;-74
2023/04/22 00:36:10;;;;;;;19.80;17.40;;;;;;;5.48;100.00;100616.69;5025933;29;20046;-72
2023/04/22 00:38:49;;;;;;;20.70;18.60;;;;;;;5.50;100.00;100613.28;5044947;29;20373;-72
2023/04/22 00:41:21;;;;;;;20.67;17.85;;;;;;;5.53;100.00;100615.88;5046088;29;20492;-72
2023/04/22 00:43:53;;;;;;;21.27;18.77;;;;;;;5.49;100.00;100620.19;5045814;29;20062;-72
2023/04/22 00:46:25;;;;;;;20.13;18.05;;;;;;;5.48;100.00;100614.13;5046150;29;20466;-73
2023/04/22 00:48:57;;;;;;;23.13;20.00;;;;;;;5.52;100.00;100619.31;5029089;29;20512;-73
2023/04/22 00:51:28;;;;;;;23.93;21.37;;;;;;;5.43;100.00;100618.41;5029833;29;20033;-73
2023/04/22 00:54:00;;;;;;;23.03;20.57;;;;;;;5.60;100.00;100628.84;5045845;29;20278;-72
2023/04/22 00:56:34;;;;;;;22.90;20.30;;;;;;;5.59;100.00;100628.84;5045389;29;20029;-72
2023/04/22 00:59:08;;;;;;;23.20;20.80;;;;;;;5.54;100.00;100631.41;5045809;29;20034;-73
2023/04/22 01:01:40;;;;;;;24.52;20.70;;;;;;;5.45;100.00;100624.44;5045357;29;20034;-73
2023/04/22 01:04:13;;;;;;;22.23;19.92;;;;;;;5.59;100.00;100626.25;5029183;29;20108;-72
2023/04/22 01:06:46;;;;;;;21.83;19.30;;;;;;;5.52;100.00;100627.06;5045342;29;20026;-72
2023/04/22 01:09:18;;;;;;;20.92;18.55;;;;;;;5.62;100.00;100621.09;5045513;29;20093;-72
2023/04/22 01:11:50;;;;;;;;;;;;;;;5.63;100.00;100622.81;5033823;29;20032;-72
2023/04/22 01:14:22;;;;;;;22.35;19.98;;;;;;;5.68;100.00;100623.69;5043516;29;19912;-72
2023/04/22 01:16:54;;;;;;;21.08;18.80;;;;;;;5.73;100.00;100616.84;5044991;29;20054;-73
2023/04/22 01:19:28;;;;;;;22.30;20.00;;;;;;;5.68;100.00;100613.34;5044591;29;20516;-72
2023/04/22 01:22:01;;;;;;;22.38;20.02;;;;;;;5.67;100.00;100614.22;5045090;29;20082;-72
2023/04/22 01:24:32;;;;;;;;;;;;;;;5.71;100.00;100612.50;5045350;29;20051;-72
2023/04/22 01:27:04;;;;;;;23.73;21.23;;;;;;;5.75;100.00;100617.72;5045216;29;19916;-72
2023/04/22 01:29:36;;;;;;;25.60;23.03;;;;;;;5.80;100.00;100618.59;5045070;29;20081;-73
2023/04/22 01:32:08;;;;;;;27.77;24.88;;;;;;;5.87;100.00;100622.06;5044875;29;20064;-74
2023/04/22 01:34:39;;;;;;;29.23;26.07;;;;;;;5.88;100.00;100605.69;5045048;29;20065;-73
2023/04/22 01:37:11;;;;;;;27.67;24.97;;;;;;;5.82;100.00;100608.25;5044969;29;20426;-73
2023/04/22 01:39:43;;;;;;;29.13;26.37;;;;;;;5.92;100.00;100603.97;5045358;29;20480;-73
2023/04/22 01:42:14;;;;;;;31.30;28.30;;;;;;;5.95;100.00;100599.66;5027697;29;20034;-72
2023/04/22 01:44:46;;;;;;;34.20;30.97;;;;;;;5.93;100.00;100601.38;5044132;29;20080;-72
2023/04/22 01:47:17;;;;;;;34.67;31.50;;;;;;;5.99;100.00;100616.13;5045051;29;20029;-72
2023/04/22 01:49:48;;;;;;;35.63;32.17;;;;;;;5.99;100.00;100603.19;5044209;29;20037;-72
2023/04/22 01:52:20;;;;;;;37.07;33.43;;;;;;;5.95;100.00;100606.56;5013294;29;20041;-72
2023/04/22 01:54:52;;;;;;;33.50;30.20;;;;;;;6.02;100.00;100604.03;5044093;29;20037;-72
2023/04/22 01:57:23;;;;;;;33.13;29.93;;;;;;;6.02;100.00;100600.56;5044802;29;20147;-72
2023/04/22 01:59:54;;;;;;;31.80;28.80;;;;;;;6.05;100.00;100610.09;5044603;29;20089;-72
2023/04/22 02:02:26;;;;;;;28.83;26.03;;;;;;;6.07;100.00;100603.19;5044404;29;20065;-72
2023/04/22 02:04:57;;;;;;;28.60;25.83;;;;;;;6.02;100.00;100606.63;5044546;29;20029;-72
2023/04/22 02:07:29;;;;;;;29.23;26.33;;;;;;;5.98;100.00;100604.03;5044467;29;20078;-72
2023/04/22 02:10:01;;;;;;;31.03;28.03;;;;;;;6.01;100.00;100609.22;5044460;29;20038;-72
2023/04/22 02:12:32;;;;;;;30.85;27.63;;;;;;;6.00;100.00;100604.88;5043934;29;20029;-72
2023/04/22 02:15:05;;;;;;;29.40;26.57;;;;;;;6.04;100.00;100604.06;5030052;29;20037;-72
2023/04/22 02:17:37;;;;;;;31.48;28.33;;;;;;;6.13;100.00;100605.78;5033163;29;20355;-72
2023/04/22 02:20:10;;;;;;;34.20;27.23;;;;;;;6.04;100.00;100604.06;5043921;29;20030;-72
2023/04/22 02:22:42;;;;;;;30.40;27.30;;;;;;;6.03;100.00;100600.56;5044009;29;20022;-72
2023/04/22 02:25:14;;;;;;;30.98;27.65;;;;;;;6.09;100.00;100598.91;5043604;29;20158;-72
2023/04/22 02:27:45;;;;;;;30.47;27.57;;;;;;;6.12;100.00;100592.00;5044485;29;20112;-72
2023/04/22 02:30:16;;;;;;;28.77;25.80;;;;;;;6.11;100.00;100605.78;5043969;29;20050;-72
2023/04/22 02:32:48;;;;;;;28.50;25.70;;;;;;;6.15;100.00;100586.81;5027727;29;20041;-72
2023/04/22 02:35:19;;;;;;;28.27;25.37;;;;;;;6.15;100.00;100580.75;5043672;29;20033;-72
2023/04/22 02:37:51;;;;;;;29.17;24.77;;;;;;;6.09;100.00;100580.78;5044176;29;20041;-72
2023/04/22 02:40:22;;;;;;;27.23;24.53;;;;;;;6.03;100.00;100586.78;5043700;29;20034;-72
2023/04/22 02:42:53;;;;;;;28.47;24.80;;;;;;;6.05;100.00;100585.06;5043763;29;20441;-72
2023/04/22 02:45:25;;;;;;;26.63;23.90;;;;;;;6.05;100.00;100574.69;5044043;29;20030;-72
2023/04/22 02:47:56;;;;;;;26.03;23.43;;;;;;;6.08;100.00;100572.13;5043434;29;20077;-72
2023/04/22 02:50:28;;;;;;;27.07;24.40;;;;;;;6.09;100.00;100568.69;5043925;29;20025;-72
2023/04/22 02:52:59;;;;;;;27.00;24.20;;;;;;;6.09;100.00;100573.00;5043652;29;20033;-72
2023/04/22 02:55:30;;;;;;;26.57;23.90;;;;;;;6.10;100.00;100573.03;5027246;29;20042;-72
2023/04/22 02:58:02;;;;;;;27.97;24.97;;;;;;;6.04;100.00;100573.00;5027035;29;20066;-72
2023/04/22 03:00:34;;;;;;;29.10;24.57;;;;;;;6.07;100.00;100570.41;5028610;29;20034;-71
2023/04/22 03:03:05;;;;;;;27.27;24.08;;;;;;;6.10;100.00;100579.91;5054389;29;20025;-71
2023/04/22 03:05:36;;;;;;;27.73;25.00;;;;;;;6.17;100.00;100579.91;5053156;29;20041;-70
2023/04/22 03:08:08;;;;;;;27.37;24.50;;;;;;;6.15;100.00;100579.06;5049444;29;20022;-71
2023/04/22 03:10:39;;;;;;;26.10;23.30;;;;;;;6.07;100.00;100577.28;5033023;29;20053;-71
2023/04/22 03:13:14;;;;;;;28.73;25.63;;;;;;;6.12;100.00;100563.53;5051046;29;20029;-72
2023/04/22 03:15:45;;;;;;;25.48;22.77;;;;;;;6.16;100.00;100573.00;5050639;29;20094;-70
2023/04/22 03:18:16;;;;;;;27.37;24.57;;;;;;;6.17;100.00;100564.38;5049458;29;20042;-70
2023/04/22 03:20:48;;;;;;;26.87;24.17;;;;;;;6.24;100.00;100561.81;5044632;29;20034;-71
2023/04/22 03:23:20;;;;;;;28.10;25.10;;;;;;;6.27;100.00;100562.69;5043342;29;20030;-71
2023/04/22 03:25:51;;;;;;;26.67;23.80;;;;;;;6.18;100.00;100553.19;5027082;29;20167;-71
2023/04/22 03:28:22;;;;;;;27.43;24.63;;;;;;;6.18;100.00;100548.00;5043270;29;20033;-72
2023/04/22 03:30:54;;;;;;;26.87;23.43;;;;;;;6.17;100.00;100550.59;5043137;29;20486;-72
2023/04/22 03:33:26;;;;;;;28.07;23.83;;;;;;;6.15;100.00;100545.41;5042887;29;20137;-72
2023/04/22 03:35:58;;;;;;;27.67;24.90;;;;;;;6.20;100.00;100542.84;5042830;29;20029;-72
2023/04/22 03:38:29;;;;;;;28.42;25.23;;;;;;;6.15;100.00;100535.06;5042868;29;20037;-71
2023/04/22 03:41:01;;;;;;;27.27;24.57;;;;;;;6.07;100.00;100523.84;5043290;29;20470;-71
2023/04/22 03:43:32;;;;;;;28.13;24.77;;;;;;;6.13;100.00;100536.75;5043107;29;20069;-71
2023/04/22 03:46:03;;;;;;;28.97;25.87;;;;;;;6.17;100.00;100528.16;5042549;29;20040;-71
2023/04/22 03:48:35;;;;;;;29.33;26.23;;;;;;;6.15;100.00;100535.06;5042951;29;20040;-72
2023/04/22 03:51:06;;;;;;;27.67;24.70;;;;;;;6.08;100.00;100528.13;5041734;29;20034;-70
2023/04/22 03:53:38;;;;;;;29.97;24.87;;;;;;;6.09;100.00;100526.44;5022666;29;20046;-70
2023/04/22 03:56:09;;;;;;;34.17;27.97;;;;;;;5.99;100.00;100526.41;5039456;29;20088;-71
2023/04/22 03:58:41;;;;;;;30.27;26.33;;;;;;;6.00;100.00;100519.50;5042543;29;20382;-71
2023/04/22 04:01:12;;;;;;;27.10;24.23;;;;;;;6.01;100.00;100524.69;5042191;29;20517;-70
2023/04/22 04:03:43;;;;;;;29.00;25.23;;;;;;;6.03;100.00;100528.13;5042930;29;20450;-71
2023/04/22 04:06:15;;;;;;;26.80;23.90;;;;;;;6.00;100.00;100519.50;5042526;29;20033;-72
2023/04/22 04:08:46;;;;;;;27.47;24.53;;;;;;;5.98;100.00;100516.91;5042319;29;20141;-71
2023/04/22 04:11:17;;;;;;;27.90;23.97;;;;;;;5.93;100.00;100508.25;5022222;29;20027;-71
2023/04/22 04:13:49;;;;;;;29.47;25.47;;;;;;;5.92;100.00;100516.00;5038047;29;20038;-72
2023/04/22 04:16:20;;;;;;;27.97;25.03;;;;;;;5.91;100.00;100522.03;5026355;29;20045;-71
2023/04/22 04:18:52;;;;;;;26.60;23.87;;;;;;;5.92;100.00;100516.84;5042210;29;20462;-71
2023/04/22 04:21:23;;;;;;;27.93;25.07;;;;;;;5.90;100.00;100517.72;5042423;29;20460;-71
2023/04/22 04:23:55;;;;;;;27.87;24.70;;;;;;;5.88;100.00;100507.38;5041849;29;20038;-71
2023/04/22 04:26:26;;;;;;;27.80;24.80;;;;;;;5.88;100.00;100506.53;5025594;29;20030;-71
2023/04/22 04:28:58;;;;;;;28.80;24.03;;;;;;;5.89;100.00;100513.41;5042075;29;20538;-71
2023/04/22 04:31:29;;;;;;;26.40;23.27;;;;;;;5.87;100.00;100507.38;5026172;29;20656;-71
2023/04/22 04:34:01;;;;;;;27.03;24.00;;;;;;;5.90;100.00;100507.38;5042266;29;20034;-72
2023/04/22 04:36:32;;;;;;;33.47;26.87;;;;;;;5.93;100.00;100515.16;5041859;29;20030;-71
2023/04/22 04:39:05;;;;;;;27.50;24.53;;;;;;;5.85;100.00;100515.13;5025978;29;20060;-71
2023/04/22 04:41:37;;;;;;;29.17;26.02;;;;;;;5.88;100.00;100515.16;5041955;29;20018;-71
2023/04/22 04:44:09;;;;;;;29.27;24.17;;;;;;;5.82;100.00;100505.63;5042095;29;20034;-72
2023/04/22 04:46:40;;;;;;;28.40;25.33;;;;;;;5.80;100.00;100506.50;5054298;29;20041;-71
2023/04/22 04:49:12;;;;;;;27.50;24.53;;;;;;;5.87;100.00;100518.59;5041871;29;20101;-71
2023/04/22 04:51:44;;;;;;;29.53;26.10;;;;;;;5.84;100.00;100513.41;5041870;29;20061;-71
2023/04/22 04:54:15;;;;;;;29.63;26.30;;;;;;;5.78;100.00;100519.44;5041301;29;20025;-71
2023/04/22 04:56:47;;;;;;;32.53;26.63;;;;;;;5.86;100.00;100516.88;5041636;29;20529;-71
2023/04/22 04:59:18;;;;;;;29.77;25.83;;;;;;;6.02;100.00;100521.25;5023835;29;20121;-71
2023/04/22 05:01:50;;;;;;;32.00;27.33;;;;;;;6.01;100.00;100522.09;5041848;29;20077;-71
2023/04/22 05:04:21;;;;;;;31.77;27.53;;;;;;;6.03;100.00;100524.69;5041682;29;20034;-71
2023/04/22 05:06:53;;;;;;;32.60;29.10;;;;;;;5.99;100.00;100512.63;5052450;29;20109;-71
2023/04/22 05:09:24;;;;;;;35.80;28.67;;;;;;;6.05;100.00;100519.50;5022306;29;20038;-71
2023/04/22 05:11:55;;;;;;;34.27;29.87;;;;;;;6.09;100.00;100513.50;5034666;29;20477;-70
2023/04/22 05:14:27;;;;;;;37.07;28.40;;;;;;;6.12;100.00;100506.59;5041618;29;20031;-70
2023/04/22 05:16:58;;;;;;;32.97;29.20;;;;;;;6.15;100.00;100496.25;5041315;29;20117;-70
2023/04/22 05:19:30;;;;;;;34.70;30.90;;;;;;;6.13;100.00;100491.91;5041462;29;20081;-70
2023/04/22 05:22:01;;;;;;;34.83;30.43;;;;;;;6.18;100.00;100495.38;5025096;29;20389;-70
2023/04/22 05:24:33;;;;;;;42.87;31.67;;;;;;;6.24;100.00;100492.78;5043728;29;20034;-69
2023/04/22 05:27:04;;;;;;;34.60;30.77;;;;;;;6.33;100.00;100503.16;5044508;29;20079;-70
2023/04/22 05:29:35;;;;;;;37.23;32.83;;;;;;;6.43;100.00;100501.41;5044945;29;20465;-70
2023/04/22 05:32:07;;;;;;;39.73;35.40;;;;;;;6.49;100.00;100503.16;5044741;29;20034;-70
2023/04/22 05:34:39;;;;;;;51.13;38.50;;;;;;;6.44;100.00;100502.28;5044424;29;20022;-70
2023/04/22 05:37:11;;;;;;;47.13;37.10;;;;;;;6.54;100.00;100501.41;5044776;29;20038;-70
2023/04/22 05:39:42;;;;;;;45.50;38.40;;;;;;;6.50;100.00;100497.94;5044938;29;20415;-70
2023/04/22 05:42:13;;;;;;;41.03;35.27;;;;;;;6.59;100.00;100494.50;5044505;29;20049;-70
2023/04/22 05:44:45;;;;;;;39.33;35.03;;;;;;;6.66;100.00;100496.22;5044544;29;20032;-70
2023/04/22 05:47:16;;;;;;;43.43;37.43;;;;;;;6.81;100.00;100500.53;5044559;29;20045;-70
2023/04/22 05:49:47;;;;;;;45.70;36.73;;;;;;;6.86;100.00;100509.16;5044411;29;20029;-70
2023/04/22 05:52:19;;;;;;;42.10;36.20;;;;;;;6.78;100.00;100508.28;5044539;29;20109;-70
2023/04/22 05:54:50;;;;;;;43.43;34.77;;;;;;;6.95;100.00;100505.66;5044474;29;20109;-70
2023/04/22 05:57:22;;;;;;;39.57;35.30;;;;;;;7.00;100.00;100503.91;5025835;29;20045;-70
2023/04/22 05:59:53;;;;;;;43.80;38.00;;;;;;;7.03;100.00;100492.69;5044557;29;20086;-70
2023/04/22 06:02:24;;;;;;;38.63;34.33;;;;;;;7.19;100.00;100494.34;5043406;29;20098;-70
2023/04/22 06:04:56;;;;;;;40.17;35.80;;;;;;;7.28;100.00;100496.91;5043735;29;20105;-72
2023/04/22 06:07:27;;;;;;;39.50;35.23;;;;;;;7.48;100.00;100496.81;5037902;29;20030;-70
2023/04/22 06:09:59;;;;;;;41.00;36.63;;;;;;;7.54;100.00;100503.72;5021956;29;20038;-71
2023/04/22 06:12:30;;;;;;;40.50;35.97;;;;;;;7.62;100.00;100501.09;5043674;29;20040;-71
2023/04/22 06:15:02;;;;;;;39.67;35.23;;;;;;;7.63;100.00;100498.50;5043542;29;20366;-70
2023/04/22 06:17:33;;;;;;;36.73;32.93;;;;;;;7.62;100.00;100501.09;5048651;29;20034;-70
2023/04/22 06:20:05;;;;;;;37.63;33.63;;;;;;;7.74;100.00;100495.81;5046498;29;20036;-70
2023/04/22 06:22:37;;;;;;;36.80;33.03;;;;;;;7.69;100.00;100496.72;5046736;29;20407;-70
2023/04/22 06:25:08;;;;;;;34.97;31.47;;;;;;;7.75;100.00;100481.13;5056584;29;20036;-72
2023/04/22 06:27:39;;;;;;;35.17;31.47;;;;;;;7.87;100.00;100481.03;5060308;29;20029;-72
2023/04/22 06:30:11;;;;;;;34.00;30.50;;;;;;;8.11;100.00;100481.75;5030391;29;20127;-71
2023/04/22 06:32:42;;;;;;;32.33;29.07;;;;;;;8.32;100.00;100491.97;5042642;29;20037;-70
2023/04/22 06:35:14;;;;;;;30.80;27.70;;;;;;;8.37;100.00;100494.50;5038949;29;20482;-73
2023/04/22 06:37:46;;;;;;;30.17;27.20;;;;;;;8.54;100.00;100492.66;5039801;29;20026;-71
2023/04/22 06:40:18;;;;;;;30.73;27.92;;;;;;;8.73;100.00;100493.34;5043240;29;20113;-71
2023/04/22 06:42:49;;;;;;;32.20;29.10;;;;;;;8.84;100.00;100489.78;5047468;29;20124;-71
2023/04/22 06:45:20;;;;;;;28.33;25.80;;;;;;;8.88;100.00;100489.72;5024310;29;20042;-71
2023/04/22 06:47:54;;;;;;;30.00;27.13;;;;;;;8.96;100.00;100481.00;5042495;29;20117;-71
2023/04/22 06:50:26;;;;;;;26.02;23.60;;;;;;;9.01;100.00;100474.88;5041610;29;20069;-71
2023/04/22 06:52:57;;;;;;;23.97;21.67;;;;;;;9.05;100.00;100467.91;5042449;29;20178;-71
2023/04/22 06:55:29;;;;;;;22.43;20.33;;;;;;;9.15;100.00;100476.47;5054075;29;20366;-70
2023/04/22 06:58:00;;;;;;;21.50;19.43;;;;;;;9.35;100.00;100478.81;5024806;29;20034;-71
2023/04/22 07:00:32;;;;;;;21.90;19.80;;;;;;;9.44;100.00;100476.09;5042742;29;20021;-71
2023/04/22 07:03:03;;;;;;;18.07;16.23;;;;;;;9.66;100.00;100481.88;5042875;29;20053;-70
2023/04/22 07:05:35;;;;;;;17.93;16.23;;;;;;;9.94;100.00;100473.66;5059065;29;20052;-71
2023/04/22 07:08:06;;;;;;;17.50;15.63;;;;;;;10.12;100.00;100480.31;5047844;29;20498;-70
2023/04/22 07:10:37;;;;;;;15.60;14.10;;;;;;;10.39;100.00;100479.06;5026781;29;20070;-71
2023/04/22 07:13:09;;;;;;;16.13;14.33;;;;;;;10.61;100.00;100473.44;5042228;29;20018;-70
2023/04/22 07:15:40;;;;;;;15.27;13.00;;;;;;;10.68;100.00;100465.50;5042948;29;20158;-70
2023/04/22 07:18:12;;;;;;;15.17;12.30;;;;;;;10.70;100.00;100474.13;5022251;29;20034;-71
2023/04/22 07:20:43;;;;;;;12.67;11.47;;;;;;;10.63;100.00;100471.69;5034688;29;20053;-70
2023/04/22 07:23:14;;;;;;;13.23;11.93;;;;;;;10.63;100.00;100471.69;5025373;29;20030;-70
2023/04/22 07:25:46;;;;;;;13.90;12.50;;;;;;;10.76;100.00;100474.03;5042159;29;20030;-70
2023/04/22 07:28:17;;;;;;;13.53;12.23;;;;;;;10.73;100.00;100478.44;5025947;29;20038;-70
2023/04/22 07:30:49;;;;;;;14.10;10.87;;;;;;;10.77;100.00;100478.38;5042808;29;20050;-69
2023/04/22 07:33:20;;;;;;;13.60;12.20;;;;;;;10.68;100.00;100475.94;5042053;29;20092;-70
2023/04/22 07:35:52;;;;;;;12.87;10.87;;;;;;;10.76;100.00;100478.41;5042922;29;20373;-70
2023/04/22 07:38:23;;;;;;;13.87;12.33;;;;;;;10.84;100.00;100476.50;5042157;29;20418;-70
2023/04/22 07:40:55;;;;;;;15.73;12.47;;;;;;;10.99;100.00;100484.94;5042713;29;20170;-70
2023/04/22 07:43:26;;;;;;;12.70;11.40;;;;;;;11.04;100.00;100476.09;5025245;29;20045;-70
2023/04/22 07:45:58;;;;;;;13.97;10.73;;;;;;;11.17;100.00;100479.34;5042079;29;20057;-70
2023/04/22 07:48:29;;;;;;;11.50;10.40;;;;;;;11.12;100.00;100483.78;5041901;29;20034;-70
2023/04/22 07:51:01;;;;;;;13.63;11.30;;;;;;;11.19;100.00;100485.41;5042451;29;20124;-70
2023/04/22 07:53:32;;;;;;;15.93;12.07;;;;;;;11.18;100.00;100468.00;5041702;29;20034;-70
2023/04/22 07:56:04;;;;;;;13.67;12.17;;;;;;;11.32;100.00;100455.53;5041514;29;20042;-70
2023/04/22 07:58:35;;;;;;;11.87;10.47;;;;;;;11.55;100.00;100450.72;5041974;29;20041;-70
2023/04/22 08:01:07;;;;;;;11.43;10.43;;;;;;;11.72;100.00;100458.16;5041004;29;20030;-69
2023/04/22 08:03:38;;;;;;;12.10;10.80;;;;;;;11.95;100.00;100450.69;5043064;29;20065;-69
2023/04/22 08:06:09;;;;;;;11.77;10.67;;;;;;;12.14;100.00;100447.63;5041624;29;20034;-69
2023/04/22 08:08:41;;;;;;;12.93;10.50;;;;;;;12.22;100.00;100448.31;5042027;29;20379;-69
2023/04/22 08:11:12;;;;;;;11.60;9.80;;;;;;;12.40;100.00;100439.16;5009827;29;20033;-68
2023/04/22 08:13:44;;;;;;;12.10;9.30;;;;;;;12.64;100.00;100450.72;5042359;29;20033;-68
2023/04/22 08:16:15;;;;;;;10.63;9.03;;;;;;;13.09;100.00;100458.19;5041291;29;20061;-68
2023/04/22 08:18:46;;;;;;;12.70;9.50;;;;;;;13.39;100.00;100446.91;5034170;29;20086;-68
2023/04/22 08:21:18;;;;;;;11.20;9.47;;;;;;;13.72;99.35;100445.03;5042168;29;20109;-68
2023/04/22 08:23:49;;;;;;;9.87;8.70;;;;;;;13.80;97.53;100440.41;5047920;29;20546;-69
2023/04/22 08:26:21;;;;;;;11.83;8.70;;;;;;;13.81;99.05;100441.25;5025038;29;20664;-69
2023/04/22 08:28:53;;;;;;;10.07;8.27;;;;;;;13.81;97.41;100433.38;5041268;29;20470;-69
2023/04/22 08:31:24;;;;;;;9.30;8.07;;;;;;;13.88;93.94;100434.91;5017539;29;20306;-69
2023/04/22 08:33:55;;;;;;;12.47;8.10;;;;;;;14.06;92.97;100443.09;5042749;29;20045;-69
2023/04/22 08:36:27;;;;;;;11.10;7.23;;;;;;;13.99;89.86;100432.81;5044597;29;20567;-69
2023/04/22 08:38:59;;;;;;;10.17;7.80;;;;;;;14.13;89.46;100432.34;5040482;29;20034;-70
2023/04/22 08:41:33;;;;;;;10.75;7.32;;;;;;;14.16;89.91;100419.13;5041212;29;20030;-70
2023/04/22 08:44:05;;;;;;;8.57;7.40;;;;;;;14.26;89.17;100406.56;5052235;29;20521;-69
2023/04/22 08:46:38;;;;;;;7.97;6.97;;;;;;;14.27;91.34;100404.81;5040390;29;20112;-69
2023/04/22 08:49:09;;;;;;;8.73;6.80;;;;;;;14.35;89.38;100402.78;5051010;29;20414;-70
2023/04/22 08:51:42;;;;;;;9.70;6.83;;;;;;;14.57;88.55;100400.25;5040451;29;20037;-71
2023/04/22 08:54:15;;;;;;;7.00;6.30;;;;;;;14.82;87.01;100400.25;5024784;29;20026;-70
2023/04/22 08:56:49;;;;;;;8.13;6.85;;;;;;;15.24;88.85;100399.56;5040795;29;20365;-70
2023/04/22 08:59:22;;;;;;;6.75;5.93;;;;;;;15.42;84.23;100405.91;5025549;29;20382;-69
2023/04/22 09:01:54;;;;;;;9.45;6.30;;;;;;;15.27;81.42;100398.59;5044453;29;20113;-69
2023/04/22 09:04:26;;;;;;;7.82;5.72;;;;;;;15.63;84.31;100395.44;5045289;29;20082;-69
2023/04/22 09:06:59;;;;;;;6.20;5.17;;;;;;;15.73;77.79;100398.53;5045011;29;20114;-72
2023/04/22 09:09:31;;;;;;;6.20;5.60;;;;;;;15.55;76.21;100395.72;5032609;29;20155;-69
2023/04/22 09:12:04;;;;;;;8.37;6.53;;;;;;;15.60;79.53;100396.44;5044231;29;20038;-69
2023/04/22 09:14:36;;;;;;;7.82;5.78;;;;;;;15.46;78.46;100398.75;5028952;29;20404;-69
2023/04/22 09:17:08;;;;;;;6.72;5.97;;;;;;;15.47;81.17;100401.31;5044284;29;20030;-69
2023/04/22 09:19:39;;;;;;;6.73;5.97;;;;;;;15.39;78.86;100397.25;5044516;29;20101;-69
2023/04/22 09:22:14;;;;;;;9.73;6.27;;;;;;;15.31;79.45;100402.81;5044105;29;20112;-69
2023/04/22 09:24:50;;;;;;;9.20;6.47;;;;;;;15.46;80.01;100396.13;5044845;29;20033;-69
2023/04/22 09:27:24;;;;;;;8.70;6.30;;;;;;;16.01;79.81;100399.16;5043470;29;20048;-69
2023/04/22 09:29:55;;;;;;;7.22;6.00;;;;;;;16.90;77.44;100385.72;5044464;29;20046;-69
2023/04/22 09:32:27;;;;;;;6.27;5.40;;;;;;;17.67;70.65;100390.84;5044139;29;20048;-70
2023/04/22 09:34:58;;;;;;;9.70;5.80;;;;;;;18.28;68.78;100385.28;5044943;29;20058;-70
2023/04/22 09:37:29;;;;;;;6.23;5.13;;;;;;;18.64;64.20;100387.78;5044335;29;20062;-69
2023/04/22 09:40:01;;;;;;;7.50;6.07;;;;;;;18.98;64.41;100383.34;5056472;29;20382;-70
2023/04/22 09:42:47;;;;;;;8.83;6.13;;;;;;;19.62;65.74;100386.84;5027572;29;20042;-70
2023/04/22 09:45:32;;;;;;;6.65;5.68;;;;;;;19.47;61.32;100385.09;5044642;29;20501;-70
2023/04/22 09:48:12;;;;;;;6.30;5.63;;;;;;;19.62;61.73;100396.59;5044226;29;20080;-69
2023/04/22 09:50:46;;;;;;;6.53;5.50;;;;;;;19.51;59.43;100405.09;5043651;29;21016;-70
2023/04/22 09:53:20;;;;;;;7.30;5.38;;;;;;;19.46;61.60;100391.31;5053178;29;20038;-69
2023/04/22 09:55:54;;;;;;;9.02;6.13;;;;;;;19.95;59.14;100388.53;5043815;29;20116;-69
2023/04/22 09:58:26;;;;;;;6.30;5.38;;;;;;;20.95;59.75;100403.72;5043502;29;20045;-69
2023/04/22 10:00:58;;;;;;;6.55;5.10;;;;;;;20.81;54.82;100393.13;5040967;29;20939;-70
2023/04/22 10:03:29;;;;;;;6.33;5.43;;;;;;;20.06;54.88;100389.69;5038180;29;20038;-69
2023/04/22 10:06:01;;;;;;;8.30;6.17;;;;;;;19.52;56.73;100390.97;5043332;29;20044;-70
2023/04/22 10:08:33;;;;;;;7.17;5.47;;;;;;;20.20;55.07;100389.72;5027012;29;20113;-70
2023/04/22 10:11:04;;;;;;;5.68;4.90;;;;;;;21.25;54.98;100385.97;5038443;29;20450;-70
2023/04/22 10:13:35;;;;;;;7.20;5.73;;;;;;;21.82;53.06;100398.25;5032620;29;20046;-70
2023/04/22 10:16:07;;;;;;;8.30;5.87;;;;;;;22.02;49.60;100392.47;5028531;29;20046;-70
2023/04/22 10:18:39;;;;;;;6.23;5.63;;;;;;;21.49;49.36;100404.78;5034588;29;20122;-70
2023/04/22 10:21:11;;;;;;;7.18;5.00;;;;;;;21.37;50.06;100402.91;5032563;29;20125;-70
2023/04/22 10:23:47;;;;;;;5.47;4.90;;;;;;;20.55;52.12;100394.72;5039722;29;20041;-70
2023/04/22 10:26:38;;;;;;;6.78;5.47;;;;;;;20.37;52.79;100399.31;5042237;29;20042;-68
2023/04/22 10:29:18;;;;;;;8.27;4.68;;;;;;;20.40;52.52;100399.97;5043174;29;20030;-69
2023/04/22 10:32:04;;;;;;;6.30;4.60;;;;;;;20.73;51.93;100393.59;5042960;29;20034;-68
2023/04/22 10:34:39;;;;;;;5.72;4.65;;;;;;;20.88;50.76;100390.94;5043802;29;20030;-68
2023/04/22 10:37:12;;;;;;;5.95;4.28;;;;;;;21.52;49.56;100378.06;5031539;29;20059;-68
2023/04/22 10:40:07;;;;;;;6.90;4.57;;;;;;;21.06;51.94;100370.41;5043682;29;20061;-68
2023/04/22 10:42:40;;;;;;;5.60;3.65;;;;;;;19.92;50.39;100364.91;5026301;29;20038;-68
2023/04/22 10:45:13;;;;;;;5.22;3.80;;;;;;;19.22;53.22;100365.31;5043154;29;20030;-68
2023/04/22 10:47:45;;;;;;;4.80;3.67;;;;;;;18.76;54.81;100373.94;5043349;29;20120;-68
2023/04/22 10:50:20;;;;;;;7.93;3.30;;;;;;;18.14;56.54;100383.34;5043480;29;20468;-69
2023/04/22 10:53:02;;;;;;;4.50;3.78;;;;;;;17.70;58.91;100376.69;5042291;29;20389;-68
2023/04/22 10:55:52;;;;;;;4.53;3.28;;;;;;;17.54;60.52;100381.00;5043001;29;20022;-68
2023/04/22 10:58:24;;;;;;;7.18;4.18;;;;;;;17.05;61.53;100397.31;5026472;29;20374;-68
2023/04/22 11:01:01;;;;;;;5.68;4.07;;;;;;;16.61;63.83;100392.25;5043336;29;20034;-68
2023/04/22 11:03:33;;;;;;;6.63;4.10;;;;;;;16.49;64.99;100398.94;5026009;29;20073;-69
2023/04/22 11:06:21;;;;;;;7.13;4.33;;;;;;;16.38;65.39;100394.97;5042967;29;20080;-69
2023/04/22 11:09:08;;;;;;;9.43;4.45;;;;;;;16.20;66.99;100388.72;5042940;29;20514;-68
2023/04/22 11:11:39;;;;;;;6.13;4.57;;;;;;;15.95;67.88;100393.31;5042554;29;20434;-69
2023/04/22 11:14:11;;;;;;;9.77;5.13;;;;;;;15.83;73.83;100397.31;5041862;29;20079;-69
2023/04/22 11:16:46;;;;;;;6.20;4.90;;;;;;;15.54;77.65;100398.44;5042439;29;20054;-69
2023/04/22 11:19:17;;;;;;;8.50;6.25;;;;;;;15.45;79.45;100394.41;5034474;29;20125;-69
2023/04/22 11:21:49;;;;;;;10.67;5.70;;;;;;;15.47;77.84;100384.66;5025097;29;20615;-69
2023/04/22 11:24:20;;;;;;;8.05;5.40;;;;;;;15.47;79.64;100388.19;5042746;29;20034;-68
2023/04/22 11:26:55;;;;;;;9.80;5.77;;;;;;;15.55;79.92;100384.38;5041833;29;20049;-68
2023/04/22 11:29:27;;;;;;;8.90;6.07;;;;;;;15.40;80.32;100388.47;5042574;29;20076;-68
2023/04/22 11:31:58;;;;;;;6.87;6.03;;;;;;;15.32;81.62;100389.59;5020803;29;20039;-69
2023/04/22 11:34:30;;;;;;;8.47;5.90;;;;;;;15.30;82.88;100394.06;5027188;29;20159;-69
2023/04/22 11:37:01;;;;;;;6.90;5.53;;;;;;;15.36;81.78;100384.25;5041018;29;20034;-69